Terminal Aerodrome Forecast
Issued by NWS

Home | Current Version | Previous Version | Text Only | Print | Product List | Glossary On
Versions: 1 2 3 4 5 6 7 8 9 10 11 12 13 14
000
FTUS43 KMPX 300520
TAFRWF
TAF
KRWF 300520Z 3006/3106 27007KT P6SM FEW090
     FM301200 22005KT P6SM BKN080
     FM301700 25009KT P6SM SCT080
     FM302100 31013G21KT P6SM FEW100
     FM310200 31007KT P6SM SKC=

USA.gov is the U.S. government's official web portal to all federal, state and local government web resources and services.